Time;durP1;ratioP1;P1;durP2;ratioP2;P2;SDS_P1;SDS_P2;PMS_P1;PMS_P2;Temp;Humidity;BMP_temperature;BMP_pressure;BME280_temperature;BME280_humidity;BME280_pressure;Samples;Min_cycle;Max_cycle;Signal;HPM_P1;HPM_P2
2023/04/18 00:00:27;;;;;;;;;;;;;;;20.49;41.66;100737.13;103936;1288;63100;-83
2023/04/18 00:02:53;;;;;;;;;;;;;;;20.49;41.61;100739.64;104041;1288;62862;-82
2023/04/18 00:05:19;;;;;;;;;;;;;;;20.49;41.63;100739.50;104006;1283;75229;-83
2023/04/18 00:07:45;;;;;;;;;;;;;;;20.49;41.49;100736.48;104049;1285;62267;-83
2023/04/18 00:10:10;;;;;;;;;;;;;;;20.49;41.55;100737.89;104050;1283;62819;-84
2023/04/18 00:12:36;;;;;;;;;;;;;;;20.48;41.53;100735.05;104105;1290;62277;-84
2023/04/18 00:15:02;;;;;;;;;;;;;;;20.48;41.52;100733.99;104307;1282;62190;-84
2023/04/18 00:17:29;;;;;;;;;;;;;;;20.48;41.60;100728.09;103986;1282;76171;-83
2023/04/18 00:19:55;;;;;;;;;;;;;;;20.48;41.42;100728.48;104010;1283;62120;-83
2023/04/18 00:22:21;;;;;;;;;;;;;;;20.48;41.62;100722.56;103989;1288;62066;-82
2023/04/18 00:24:48;;;;;;;;;;;;;;;20.48;41.49;100723.64;104039;1285;62519;-83
2023/04/18 00:27:14;;;;;;;;;;;;;;;20.48;41.45;100717.75;104008;1285;62213;-84
2023/04/18 00:29:41;;;;;;;;;;;;;;;20.48;41.59;100719.03;103998;1287;62161;-83
2023/04/18 00:32:06;;;;;;;;;;;;;;;20.48;41.51;100716.86;103941;1282;62117;-83
2023/04/18 00:34:32;;;;;;;;;;;;;;;20.47;41.48;100712.96;103848;1283;62156;-83
2023/04/18 00:36:57;;;;;;;;;;;;;;;20.47;41.54;100709.77;103944;1288;62190;-83
2023/04/18 00:39:23;;;;;;;;;;;;;;;20.47;41.60;100711.39;104032;1285;62187;-84
2023/04/18 00:41:50;;;;;;;;;;;;;;;20.47;41.54;100709.41;103987;1288;62255;-84
2023/04/18 00:44:15;;;;;;;;;;;;;;;20.47;41.45;100703.17;103911;1283;62037;-84
2023/04/18 00:46:41;;;;;;;;;;;;;;;20.46;41.53;100702.33;104011;1283;62177;-84
2023/04/18 00:49:06;;;;;;;;;;;;;;;20.46;41.57;100697.17;103972;1283;62178;-84
2023/04/18 00:51:32;;;;;;;;;;;;;;;20.46;41.50;100695.93;103982;1286;62162;-82
2023/04/18 00:53:58;;;;;;;;;;;;;;;20.45;41.44;100692.01;104076;1284;62168;-84
2023/04/18 00:56:24;;;;;;;;;;;;;;;20.45;41.51;100692.92;103860;1283;62851;-83
2023/04/18 00:58:50;;;;;;;;;;;;;;;20.45;41.57;100686.31;103976;1283;73458;-83
2023/04/18 01:01:16;;;;;;;;;;;;;;;20.45;41.62;100684.88;103982;1282;62257;-83
2023/04/18 01:03:42;;;;;;;;;;;;;;;20.45;41.41;100681.85;104066;1282;62062;-83
2023/04/18 01:06:08;;;;;;;;;;;;;;;20.45;41.41;100680.44;103925;1283;62200;-83
2023/04/18 01:08:33;;;;;;;;;;;;;;;20.45;41.49;100676.86;103941;1289;62180;-83
2023/04/18 01:10:59;;;;;;;;;;;;;;;20.44;41.46;100674.73;103993;1287;62788;-83
2023/04/18 01:13:24;;;;;;;;;;;;;;;20.44;41.43;100674.38;103926;1283;62178;-83
2023/04/18 01:15:50;;;;;;;;;;;;;;;20.44;41.51;100674.74;103955;1282;63358;-83
2023/04/18 01:18:16;;;;;;;;;;;;;;;20.44;41.45;100669.95;103985;1285;62104;-84
2023/04/18 01:20:45;;;;;;;;;;;;;;;20.44;41.45;100669.93;103971;1288;62203;-83
2023/04/18 01:23:11;;;;;;;;;;;;;;;20.44;41.50;100664.21;103948;1283;76360;-84
2023/04/18 01:25:39;;;;;;;;;;;;;;;20.43;41.50;100660.69;103941;1282;62201;-83
2023/04/18 01:28:05;;;;;;;;;;;;;;;20.43;41.61;100658.54;103937;1282;62179;-84
2023/04/18 01:30:33;;;;;;;;;;;;;;;20.43;41.47;100657.12;103970;1288;62612;-84
2023/04/18 01:33:03;;;;;;;;;;;;;;;20.43;41.39;100656.25;103894;1282;76076;-83
2023/04/18 01:35:30;;;;;;;;;;;;;;;20.42;41.50;100653.59;103972;1286;62120;-84
2023/04/18 01:37:56;;;;;;;;;;;;;;;20.42;41.48;100649.47;103967;1282;62130;-84
2023/04/18 01:40:21;;;;;;;;;;;;;;;20.42;41.56;100650.01;103989;1283;62069;-83
2023/04/18 01:42:47;;;;;;;;;;;;;;;20.42;41.55;100649.85;104019;1288;63181;-83
2023/04/18 01:45:12;;;;;;;;;;;;;;;20.42;41.34;100651.66;103935;1282;62311;-84
2023/04/18 01:47:38;;;;;;;;;;;;;;;20.42;41.43;100651.66;104038;1286;62187;-84
2023/04/18 01:50:04;;;;;;;;;;;;;;;20.41;41.32;100643.47;103967;1283;62273;-83
2023/04/18 01:52:29;;;;;;;;;;;;;;;20.42;41.43;100643.81;103934;1283;62136;-84
2023/04/18 01:54:55;;;;;;;;;;;;;;;20.41;41.36;100639.39;103981;1286;62187;-83
2023/04/18 01:57:20;;;;;;;;;;;;;;;20.41;41.37;100640.98;104014;1282;63480;-82
2023/04/18 01:59:46;;;;;;;;;;;;;;;20.41;41.37;100640.46;103923;1288;62179;-84
2023/04/18 02:02:12;;;;;;;;;;;;;;;20.41;41.28;100647.63;104017;1283;62200;-83
2023/04/18 02:04:37;;;;;;;;;;;;;;;20.41;41.53;100646.72;103901;1282;63492;-84
2023/04/18 02:07:03;;;;;;;;;;;;;;;20.41;41.30;100652.10;103959;1283;62889;-83
2023/04/18 02:09:29;;;;;;;;;;;;;;;20.40;41.41;100651.57;104002;1282;62191;-84
2023/04/18 02:11:58;;;;;;;;;;;;;;;20.40;41.33;100650.52;103983;1282;62149;-84
2023/04/18 02:14:28;;;;;;;;;;;;;;;20.40;41.43;100647.30;104018;1282;62139;-83
2023/04/18 02:16:54;;;;;;;;;;;;;;;20.40;41.41;100649.08;104036;1286;75360;-82
2023/04/18 02:19:19;;;;;;;;;;;;;;;20.40;41.30;100648.91;104000;1282;62280;-82
2023/04/18 02:21:45;;;;;;;;;;;;;;;20.40;41.30;100647.16;104061;1288;62350;-83
2023/04/18 02:24:10;;;;;;;;;;;;;;;20.40;41.47;100644.66;103990;1283;62241;-83
2023/04/18 02:26:36;;;;;;;;;;;;;;;20.39;41.25;100646.10;104054;1287;62261;-84
2023/04/18 02:29:01;;;;;;;;;;;;;;;20.40;41.44;100648.22;103994;1285;62267;-84
2023/04/18 02:31:27;;;;;;;;;;;;;;;20.39;41.43;100650.76;104324;1282;62206;-83
2023/04/18 02:33:53;;;;;;;;;;;;;;;20.39;41.34;100652.23;104264;1283;62184;-82
2023/04/18 02:36:18;;;;;;;;;;;;;;;20.39;41.35;100650.41;104038;1282;62066;-82
2023/04/18 02:38:44;;;;;;;;;;;;;;;20.39;41.36;100655.23;103878;1282;62155;-82
2023/04/18 02:41:14;;;;;;;;;;;;;;;20.39;41.23;100658.09;104009;1283;76698;-82
2023/04/18 02:43:40;;;;;;;;;;;;;;;20.39;41.39;100659.19;104038;1283;62168;-83
2023/04/18 02:46:05;;;;;;;;;;;;;;;20.39;41.36;100660.27;104062;1282;63368;-84
2023/04/18 02:48:30;;;;;;;;;;;;;;;20.38;41.40;100659.06;104016;1287;62136;-84
2023/04/18 02:51:06;;;;;;;;;;;;;;;20.39;41.31;100657.44;103924;1288;62194;-85
2023/04/18 02:53:32;;;;;;;;;;;;;;;20.38;41.37;100655.31;103995;1288;62185;-83
2023/04/18 02:55:58;;;;;;;;;;;;;;;20.38;41.25;100655.86;103893;1282;62072;-84
2023/04/18 02:58:24;;;;;;;;;;;;;;;20.37;41.33;100652.30;103948;1288;62249;-84
2023/04/18 03:00:51;;;;;;;;;;;;;;;20.38;41.38;100653.37;104002;1282;63324;-84
2023/04/18 03:03:16;;;;;;;;;;;;;;;20.37;41.25;100652.15;103995;1282;62663;-83
2023/04/18 03:05:42;;;;;;;;;;;;;;;20.37;41.31;100648.75;104035;1283;62101;-83
2023/04/18 03:08:07;;;;;;;;;;;;;;;20.37;41.41;100649.86;104011;1283;62242;-84
2023/04/18 03:10:33;;;;;;;;;;;;;;;20.37;41.31;100650.00;103993;1283;71951;-83
2023/04/18 03:12:58;;;;;;;;;;;;;;;20.38;41.46;100652.48;103985;1282;62287;-83
2023/04/18 03:15:24;;;;;;;;;;;;;;;20.37;41.36;100651.30;103951;1288;62278;-84
2023/04/18 03:17:50;;;;;;;;;;;;;;;20.37;41.29;100650.05;104027;1282;62571;-84
2023/04/18 03:20:16;;;;;;;;;;;;;;;20.36;41.33;100652.59;104087;1288;62155;-83
2023/04/18 03:22:42;;;;;;;;;;;;;;;20.36;41.23;100650.98;103939;1288;72613;-83
2023/04/18 03:25:07;;;;;;;;;;;;;;;20.36;41.30;100649.91;104003;1283;63541;-83
2023/04/18 03:27:33;;;;;;;;;;;;;;;20.36;41.36;100650.46;104127;1282;62245;-84
2023/04/18 03:29:58;;;;;;;;;;;;;;;20.36;41.19;100651.89;103917;1283;62284;-83
2023/04/18 03:32:24;;;;;;;;;;;;;;;20.36;41.25;100651.73;104168;1282;62191;-83
2023/04/18 03:34:50;;;;;;;;;;;;;;;20.36;41.28;100651.72;104175;1282;72656;-82
2023/04/18 03:37:15;;;;;;;;;;;;;;;20.36;41.22;100646.56;104150;1283;62600;-83
2023/04/18 03:39:43;;;;;;;;;;;;;;;20.36;41.32;100643.88;104320;1283;62191;-82
2023/04/18 03:42:08;;;;;;;;;;;;;;;20.36;41.20;100642.45;104331;1286;62126;-82
2023/04/18 03:44:34;;;;;;;;;;;;;;;20.37;41.19;100643.81;104233;1288;62192;-82
2023/04/18 03:47:00;;;;;;;;;;;;;;;20.36;41.39;100644.56;104233;1283;62072;-82
2023/04/18 03:49:26;;;;;;;;;;;;;;;20.36;41.26;100649.02;104205;1283;62188;-82
2023/04/18 03:51:51;;;;;;;;;;;;;;;20.36;41.12;100651.70;104012;1285;62126;-83
2023/04/18 03:54:17;;;;;;;;;;;;;;;20.37;41.35;100655.58;104135;1285;62190;-82
2023/04/18 03:56:43;;;;;;;;;;;;;;;20.37;41.24;100663.48;104245;1283;62217;-82
2023/04/18 03:59:09;;;;;;;;;;;;;;;20.37;41.30;100666.30;104212;1283;62152;-83
2023/04/18 04:01:35;;;;;;;;;;;;;;;20.36;41.28;100667.25;104232;1285;62185;-83
2023/04/18 04:04:01;;;;;;;;;;;;;;;20.37;41.19;100671.67;104111;1283;62673;-83
2023/04/18 04:06:27;;;;;;;;;;;;;;;20.36;41.19;100673.13;104056;1283;62263;-83
2023/04/18 04:08:52;;;;;;;;;;;;;;;20.37;41.29;100670.77;103874;1289;62104;-83
2023/04/18 04:11:18;;;;;;;;;;;;;;;20.37;41.35;100673.47;103884;1283;75415;-82
2023/04/18 04:13:44;;;;;;;;;;;;;;;20.37;41.14;100676.89;103752;1290;62175;-83
2023/04/18 04:16:09;;;;;;;;;;;;;;;20.36;41.30;100676.36;103890;1283;62235;-83
2023/04/18 04:18:35;;;;;;;;;;;;;;;20.36;41.18;100678.17;103865;1283;62839;-84
2023/04/18 04:21:00;;;;;;;;;;;;;;;20.36;41.32;100681.21;104131;1288;62131;-83
2023/04/18 04:23:26;;;;;;;;;;;;;;;20.36;41.31;100681.73;103799;1285;62485;-83
2023/04/18 04:25:52;;;;;;;;;;;;;;;20.36;41.18;100685.67;103844;1286;62271;-83
2023/04/18 04:28:18;;;;;;;;;;;;;;;20.36;41.25;100684.29;103869;1286;62271;-83
2023/04/18 04:30:45;;;;;;;;;;;;;;;20.35;41.07;100684.63;103795;1286;62191;-83
2023/04/18 04:33:11;;;;;;;;;;;;;;;20.35;41.19;100684.87;103843;1285;62171;-83
2023/04/18 04:35:36;;;;;;;;;;;;;;;20.35;41.14;100691.98;103993;1286;62267;-82
2023/04/18 04:38:02;;;;;;;;;;;;;;;20.35;41.23;100686.48;104038;1285;62165;-82
2023/04/18 04:40:27;;;;;;;;;;;;;;;20.35;41.17;100689.15;104138;1285;62187;-84
2023/04/18 04:42:53;;;;;;;;;;;;;;;20.35;41.12;100688.29;103976;1286;62209;-84
2023/04/18 04:45:19;;;;;;;;;;;;;;;20.35;41.04;100688.08;103915;1285;63089;-84
2023/04/18 04:47:44;;;;;;;;;;;;;;;20.34;41.05;100693.67;103845;1288;62203;-83
2023/04/18 04:50:14;;;;;;;;;;;;;;;20.34;41.19;100698.83;104072;1283;62203;-84
2023/04/18 04:52:40;;;;;;;;;;;;;;;20.35;41.23;100697.23;104211;1286;72326;-83
2023/04/18 04:55:05;;;;;;;;;;;;;;;20.35;41.20;100698.66;103849;1283;62228;-83
2023/04/18 04:57:31;;;;;;;;;;;;;;;20.34;41.07;100703.67;103672;1288;62103;-83
2023/04/18 04:59:56;;;;;;;;;;;;;;;20.35;41.06;100707.94;103634;1286;62208;-83
2023/04/18 05:02:23;;;;;;;;;;;;;;;20.34;41.05;100712.77;103624;1289;63307;-84
2023/04/18 05:04:48;;;;;;;;;;;;;;;20.35;41.03;100713.50;103624;1294;62189;-84
2023/04/18 05:07:14;;;;;;;;;;;;;;;20.34;41.26;100715.30;103734;1289;76216;-84
2023/04/18 05:09:40;;;;;;;;;;;;;;;20.35;41.08;100717.42;103607;1286;63291;-84
2023/04/18 05:12:06;;;;;;;;;;;;;;;20.35;41.14;100722.59;103635;1288;62844;-83
2023/04/18 05:14:33;;;;;;;;;;;;;;;20.35;41.08;100721.89;103636;1291;62283;-84
2023/04/18 05:16:58;;;;;;;;;;;;;;;20.34;41.05;100722.98;103632;1288;62182;-82
2023/04/18 05:19:24;;;;;;;;;;;;;;;20.35;41.10;100724.03;103737;1288;63416;-82
2023/04/18 05:21:49;;;;;;;;;;;;;;;20.35;41.02;100724.73;103688;1286;62193;-83
2023/04/18 05:24:15;;;;;;;;;;;;;;;20.34;41.03;100724.75;103633;1291;63222;-83
2023/04/18 05:26:41;;;;;;;;;;;;;;;20.35;41.20;100726.88;103649;1288;62199;-83
2023/04/18 05:29:06;;;;;;;;;;;;;;;20.35;41.09;100733.15;103730;1285;62191;-83
2023/04/18 05:31:32;;;;;;;;;;;;;;;20.34;40.90;100730.15;103826;1285;62181;-83
2023/04/18 05:33:57;;;;;;;;;;;;;;;20.34;40.96;100731.40;103941;1283;62242;-83
2023/04/18 05:36:23;;;;;;;;;;;;;;;20.34;41.11;100739.27;103839;1284;62180;-83
2023/04/18 05:38:49;;;;;;;;;;;;;;;20.34;40.96;100741.42;104007;1285;62797;-84
2023/04/18 05:41:14;;;;;;;;;;;;;;;20.34;41.00;100739.64;103791;1286;62209;-83
2023/04/18 05:43:40;;;;;;;;;;;;;;;20.34;41.02;100739.47;103830;1284;63456;-82
2023/04/18 05:46:05;;;;;;;;;;;;;;;20.33;41.03;100744.31;103934;1285;62188;-84
2023/04/18 05:48:31;;;;;;;;;;;;;;;20.33;41.06;100748.60;104054;1285;62367;-84
2023/04/18 05:50:56;;;;;;;;;;;;;;;20.33;41.07;100751.13;103861;1283;62181;-83
2023/04/18 05:53:22;;;;;;;;;;;;;;;20.33;40.98;100753.27;104032;1288;62203;-83
2023/04/18 05:55:48;;;;;;;;;;;;;;;20.32;40.99;100751.52;103886;1285;62203;-83
2023/04/18 05:58:14;;;;;;;;;;;;;;;20.33;41.02;100752.59;103925;1283;62067;-84
2023/04/18 06:00:41;;;;;;;;;;;;;;;20.32;41.06;100751.88;103839;1286;62120;-84
2023/04/18 06:03:06;;;;;;;;;;;;;;;20.32;41.06;100748.84;103942;1286;63367;-84
2023/04/18 06:05:32;;;;;;;;;;;;;;;20.32;40.94;100744.21;103900;1288;62092;-84
2023/04/18 06:07:57;;;;;;;;;;;;;;;20.32;41.16;100740.81;103856;1283;62131;-84
2023/04/18 06:10:23;;;;;;;;;;;;;;;20.32;40.94;100742.27;103974;1285;62203;-83
2023/04/18 06:12:48;;;;;;;;;;;;;;;20.32;41.08;100743.35;103890;1286;62121;-84
2023/04/18 06:15:14;;;;;;;;;;;;;;;20.31;41.08;100743.90;103835;1288;62176;-82
2023/04/18 06:17:40;;;;;;;;;;;;;;;20.32;41.00;100744.96;103828;1283;62472;-84
2023/04/18 06:20:05;;;;;;;;;;;;;;;20.32;40.98;100748.36;103855;1285;62127;-83
2023/04/18 06:22:34;;;;;;;;;;;;;;;20.31;41.01;100752.14;104029;1283;62283;-84
2023/04/18 06:25:00;;;;;;;;;;;;;;;20.31;40.96;100751.60;104000;1283;72434;-83
2023/04/18 06:27:26;;;;;;;;;;;;;;;20.31;40.99;100749.30;103789;1286;62592;-84
2023/04/18 06:29:52;;;;;;;;;;;;;;;20.31;40.96;100749.46;103875;1285;62127;-84
2023/04/18 06:32:18;;;;;;;;;;;;;;;20.31;41.12;100750.36;103873;1282;62187;-84
2023/04/18 06:34:43;;;;;;;;;;;;;;;20.31;41.06;100747.69;103989;1283;62480;-83
2023/04/18 06:37:09;;;;;;;;;;;;;;;20.31;40.94;100747.89;104195;1282;62101;-84
2023/04/18 06:39:35;;;;;;;;;;;;;;;20.30;41.01;100745.57;104483;1285;75405;-83
2023/04/18 06:42:01;;;;;;;;;;;;;;;20.31;40.93;100746.22;104351;1282;62143;-83
2023/04/18 06:44:27;;;;;;;;;;;;;;;20.31;40.93;100741.97;104377;1283;62353;-83
2023/04/18 06:46:53;;;;;;;;;;;;;;;20.31;40.97;100742.70;104320;1282;62193;-84
2023/04/18 06:49:18;;;;;;;;;;;;;;;20.31;40.84;100738.20;104363;1283;63277;-83
2023/04/18 06:51:43;;;;;;;;;;;;;;;20.31;41.12;100738.58;104375;1282;62158;-83
2023/04/18 06:54:09;;;;;;;;;;;;;;;20.32;40.99;100744.05;104155;1283;62708;-83
2023/04/18 06:56:35;;;;;;;;;;;;;;;20.32;41.10;100745.67;104036;1283;63448;-83
2023/04/18 06:59:00;;;;;;;;;;;;;;;20.32;41.04;100752.25;103910;1282;62213;-84
2023/04/18 07:01:26;;;;;;;;;;;;;;;20.31;40.98;100754.45;103965;1288;62172;-84
2023/04/18 07:03:51;;;;;;;;;;;;;;;20.32;41.01;100757.45;103963;1282;62265;-84
2023/04/18 07:06:17;;;;;;;;;;;;;;;20.31;40.96;100754.80;103607;1286;614574;-83
2023/04/18 07:08:43;;;;;;;;;;;;;;;20.31;40.94;100753.38;104059;1282;62593;-84
2023/04/18 07:11:10;;;;;;;;;;;;;;;20.32;41.01;100752.64;104346;1283;62161;-83
2023/04/18 07:13:35;;;;;;;;;;;;;;;20.32;41.05;100754.27;104155;1282;62161;-83
2023/04/18 07:16:01;;;;;;;;;;;;;;;20.32;40.95;100754.97;104033;1283;63300;-83
2023/04/18 07:18:28;;;;;;;;;;;;;;;20.32;40.90;100755.16;104004;1288;62130;-83
2023/04/18 07:20:53;;;;;;;;;;;;;;;20.31;41.02;100748.23;103968;1283;62120;-84
2023/04/18 07:23:19;;;;;;;;;;;;;;;20.31;40.82;100750.91;104030;1282;62125;-84
2023/04/18 07:25:45;;;;;;;;;;;;;;;20.31;40.94;100754.30;104123;1288;62104;-82
2023/04/18 07:28:12;;;;;;;;;;;;;;;20.31;40.96;100753.42;104088;1283;62324;-83
2023/04/18 07:30:38;;;;;;;;;;;;;;;20.30;40.95;100752.38;103970;1288;62098;-83
2023/04/18 07:33:03;;;;;;;;;;;;;;;20.30;41.06;100746.64;104040;1283;62533;-84
2023/04/18 07:35:29;;;;;;;;;;;;;;;20.30;41.01;100751.30;103870;1283;62219;-83
2023/04/18 07:37:54;;;;;;;;;;;;;;;20.30;41.07;100755.99;104058;1282;62126;-83
2023/04/18 07:40:20;;;;;;;;;;;;;;;20.30;41.06;100758.09;104042;1288;62245;-83
2023/04/18 07:42:45;;;;;;;;;;;;;;;20.30;41.05;100764.56;104097;1282;62053;-82
2023/04/18 07:45:11;;;;;;;;;;;;;;;20.30;41.01;100774.88;104031;1288;63420;-83
2023/04/18 07:47:36;;;;;;;;;;;;;;;20.30;41.04;100772.77;103978;1282;62113;-84
2023/04/18 07:50:02;;;;;;;;;;;;;;;20.31;40.96;100774.16;104011;1283;62181;-82
2023/04/18 07:52:28;;;;;;;;;;;;;;;20.30;41.02;100779.02;104070;1282;62190;-83
2023/04/18 07:54:53;;;;;;;;;;;;;;;20.30;40.95;100776.69;103842;1282;62169;-84
2023/04/18 07:57:19;;;;;;;;;;;;;;;20.31;41.03;100777.21;103985;1282;62165;-83
2023/04/18 07:59:44;;;;;;;;;;;;;;;20.30;40.91;100774.17;103966;1288;62196;-83
2023/04/18 08:02:10;;;;;;;;;;;;;;;20.31;41.06;100777.38;104035;1283;62282;-83
2023/04/18 08:04:35;;;;;;;;;;;;;;;20.31;41.03;100778.95;104011;1282;62161;-83
2023/04/18 08:07:02;;;;;;;;;;;;;;;20.31;41.02;100776.29;104091;1283;62191;-84
2023/04/18 08:09:27;;;;;;;;;;;;;;;20.31;41.18;100780.38;104105;1282;63293;-83
2023/04/18 08:11:55;;;;;;;;;;;;;;;20.32;40.94;100785.16;103830;1283;62685;-84
2023/04/18 08:14:21;;;;;;;;;;;;;;;20.32;41.09;100783.52;104032;1283;62184;-84
2023/04/18 08:16:46;;;;;;;;;;;;;;;20.32;41.06;100783.70;104047;1283;62213;-84
2023/04/18 08:19:12;;;;;;;;;;;;;;;20.34;41.04;100783.06;103949;1282;62815;-83
2023/04/18 08:21:38;;;;;;;;;;;;;;;20.34;41.06;100786.42;104064;1282;62225;-83
2023/04/18 08:24:03;;;;;;;;;;;;;;;20.35;41.07;100784.94;104040;1288;62182;-84
2023/04/18 08:26:29;;;;;;;;;;;;;;;20.35;41.15;100780.80;104091;1283;63742;-84
2023/04/18 08:28:55;;;;;;;;;;;;;;;20.36;41.08;100781.30;104021;1283;62123;-84
2023/04/18 08:31:20;;;;;;;;;;;;;;;20.37;41.10;100777.69;104011;1282;62206;-83
2023/04/18 08:33:47;;;;;;;;;;;;;;;20.37;41.10;100781.73;103956;1283;62178;-84
2023/04/18 08:36:12;;;;;;;;;;;;;;;20.37;41.02;100784.05;104008;1283;62261;-83
2023/04/18 08:38:38;;;;;;;;;;;;;;;20.38;41.07;100782.95;104064;1283;62265;-84
2023/04/18 08:41:03;;;;;;;;;;;;;;;20.38;40.95;100774.39;104017;1282;62194;-83
2023/04/18 08:43:30;;;;;;;;;;;;;;;20.39;41.15;100770.55;104050;1288;62155;-82
2023/04/18 08:45:58;;;;;;;;;;;;;;;20.39;41.16;100767.71;104014;1283;62107;-84
2023/04/18 08:48:26;;;;;;;;;;;;;;;20.39;41.12;100763.91;103998;1282;62092;-84
2023/04/18 08:50:55;;;;;;;;;;;;;;;20.40;40.95;100770.83;103946;1282;62076;-83
2023/04/18 08:53:21;;;;;;;;;;;;;;;20.40;40.95;100771.88;104012;1283;73202;-83
2023/04/18 08:55:49;;;;;;;;;;;;;;;20.40;41.11;100773.51;104082;1282;62159;-83
2023/04/18 08:58:18;;;;;;;;;;;;;;;20.40;41.05;100771.16;104014;1283;62188;-83
2023/04/18 09:00:48;;;;;;;;;;;;;;;20.41;41.17;100773.09;104086;1282;62187;-84
2023/04/18 09:03:15;;;;;;;;;;;;;;;20.42;41.14;100776.80;104055;1286;74355;-83
2023/04/18 09:05:41;;;;;;;;;;;;;;;20.42;41.13;100775.50;104123;1282;76028;-83
2023/04/18 09:08:20;;;;;;;;;;;;;;;20.42;41.11;100784.98;103968;1288;63729;-83
2023/04/18 09:10:46;;;;;;;;;;;;;;;20.42;41.20;100780.31;103981;1286;62123;-85
2023/04/18 09:13:12;;;;;;;;;;;;;;;20.43;41.18;100783.14;104077;1282;62358;-83
2023/04/18 09:15:38;;;;;;;;;;;;;;;20.43;41.30;100777.63;103994;1283;63476;-83
2023/04/18 09:18:04;;;;;;;;;;;;;;;20.43;41.17;100768.81;103953;1283;62115;-83
2023/04/18 09:20:33;;;;;;;;;;;;;;;20.43;41.26;100768.09;103959;1282;62112;-83
2023/04/18 09:23:00;;;;;;;;;;;;;;;20.44;41.26;100771.29;103826;1283;71497;-83
2023/04/18 09:25:38;;;;;;;;;;;;;;;20.44;41.23;100766.98;103949;1282;62244;-83
2023/04/18 09:28:04;;;;;;;;;;;;;;;20.45;41.01;100758.57;104252;1283;62085;-83
2023/04/18 09:30:32;;;;;;;;;;;;;;;20.45;41.18;100759.98;105137;1282;62188;-83
2023/04/18 09:33:08;;;;;;;;;;;;;;;20.45;41.11;100759.77;105381;1286;72635;-83
2023/04/18 09:35:37;;;;;;;;;;;;;;;20.45;41.27;100757.25;103903;1283;76256;-83
2023/04/18 09:38:03;;;;;;;;;;;;;;;20.46;41.20;100755.81;104050;1283;62098;-83
2023/04/18 09:40:29;;;;;;;;;;;;;;;20.46;41.33;100754.00;103981;1282;63438;-83
2023/04/18 09:42:55;;;;;;;;;;;;;;;20.46;41.21;100755.05;104087;1283;63355;-84
2023/04/18 09:45:21;;;;;;;;;;;;;;;20.47;41.18;100750.20;104047;1282;62184;-83
2023/04/18 09:47:46;;;;;;;;;;;;;;;20.46;41.24;100746.33;104038;1283;62271;-84
2023/04/18 09:50:12;;;;;;;;;;;;;;;20.46;41.34;100745.59;104043;1283;62299;-84
2023/04/18 09:52:38;;;;;;;;;;;;;;;20.46;41.27;100746.50;104070;1282;61992;-84
2023/04/18 09:55:04;;;;;;;;;;;;;;;20.45;41.22;100748.67;103964;1288;62210;-83
2023/04/18 09:57:30;;;;;;;;;;;;;;;20.45;41.20;100752.42;104055;1286;62194;-84
2023/04/18 10:00:07;;;;;;;;;;;;;;;20.45;41.34;100747.07;103881;1283;62209;-84
2023/04/18 10:02:34;;;;;;;;;;;;;;;20.45;41.29;100739.96;104047;1282;62128;-84
2023/04/18 10:05:00;;;;;;;;;;;;;;;20.45;41.22;100741.56;104038;1288;73503;-84
2023/04/18 10:07:25;;;;;;;;;;;;;;;20.44;41.15;100745.48;104012;1283;62187;-82
2023/04/18 10:09:51;;;;;;;;;;;;;;;20.45;41.21;100744.78;104058;1282;63315;-82
2023/04/18 10:12:16;;;;;;;;;;;;;;;20.44;41.24;100744.80;104046;1287;62191;-84
2023/04/18 10:14:42;;;;;;;;;;;;;;;20.44;41.29;100750.36;104069;1284;62239;-83
2023/04/18 10:17:08;;;;;;;;;;;;;;;20.43;41.25;100748.61;104085;1287;73601;-84
2023/04/18 10:19:34;;;;;;;;;;;;;;;20.43;41.24;100743.78;104064;1282;63271;-83
2023/04/18 10:22:00;;;;;;;;;;;;;;;20.43;41.20;100742.36;104066;1282;62216;-83
2023/04/18 10:24:44;;;;;;;;;;;;;;;20.43;41.24;100744.32;104051;1283;62274;-83
2023/04/18 10:27:10;;;;;;;;;;;;;;;20.42;41.31;100747.40;104095;1287;73458;-84
2023/04/18 10:29:49;;;;;;;;;;;;;;;20.43;41.41;100756.31;103901;1288;62290;-84
2023/04/18 10:32:15;;;;;;;;;;;;;;;20.42;41.32;100748.48;103897;1283;62204;-84
2023/04/18 10:34:41;;;;;;;;;;;;;;;20.42;41.29;100747.63;103939;1286;62200;-84
2023/04/18 10:37:07;;;;;;;;;;;;;;;20.42;41.24;100743.85;104015;1282;62141;-84
2023/04/18 10:39:52;;;;;;;;;;;;;;;20.42;41.29;100745.46;103987;1282;62657;-83
2023/04/18 10:42:17;;;;;;;;;;;;;;;20.43;41.39;100740.98;104075;1285;62127;-83
2023/04/18 10:44:43;;;;;;;;;;;;;;;20.42;41.31;100739.75;104069;1282;62219;-83
2023/04/18 10:47:08;;;;;;;;;;;;;;;20.42;41.22;100735.83;104287;1288;62145;-84
2023/04/18 10:49:36;;;;;;;;;;;;;;;20.42;41.19;100741.19;104176;1282;62110;-83
2023/04/18 10:52:02;;;;;;;;;;;;;;;20.42;41.33;100735.83;103897;1282;62651;-83
2023/04/18 10:54:30;;;;;;;;;;;;;;;20.42;41.50;100733.69;104009;1288;62130;-83
2023/04/18 10:56:58;;;;;;;;;;;;;;;20.43;41.41;100737.59;104093;1284;73455;-84
2023/04/18 10:59:25;;;;;;;;;;;;;;;20.42;41.31;100738.34;104205;1288;76409;-83
2023/04/18 11:01:54;;;;;;;;;;;;;;;20.43;41.31;100738.83;104209;1286;62200;-83
2023/04/18 11:04:20;;;;;;;;;;;;;;;20.42;41.39;100739.58;104138;1287;62068;-83
2023/04/18 11:06:49;;;;;;;;;;;;;;;20.42;41.37;100735.45;104124;1282;62255;-83
2023/04/18 11:09:15;;;;;;;;;;;;;;;20.42;41.37;100736.54;104093;1283;75316;-84
2023/04/18 11:11:41;;;;;;;;;;;;;;;20.42;41.35;100738.67;104054;1282;62055;-83
2023/04/18 11:14:06;;;;;;;;;;;;;;;20.43;41.40;100741.86;104154;1282;62206;-84
2023/04/18 11:16:32;;;;;;;;;;;;;;;20.43;41.42;100740.08;104078;1283;63327;-84
2023/04/18 11:18:58;;;;;;;;;;;;;;;20.43;41.38;100738.45;103880;1282;62610;-83
2023/04/18 11:21:26;;;;;;;;;;;;;;;20.43;41.43;100736.52;104027;1288;62174;-84
2023/04/18 11:23:51;;;;;;;;;;;;;;;20.43;41.41;100736.48;104078;1282;62234;-83
2023/04/18 11:26:18;;;;;;;;;;;;;;;20.43;41.35;100732.91;103973;1283;62854;-84
2023/04/18 11:28:49;;;;;;;;;;;;;;;20.43;41.58;100728.63;104044;1288;62200;-83
2023/04/18 11:31:15;;;;;;;;;;;;;;;20.43;41.59;100728.45;104072;1286;62219;-83
2023/04/18 11:33:40;;;;;;;;;;;;;;;20.43;41.44;100730.79;104063;1288;62188;-83
2023/04/18 11:36:06;;;;;;;;;;;;;;;20.42;41.72;100730.45;104012;1288;62238;-83
2023/04/18 11:38:32;;;;;;;;;;;;;;;20.42;41.74;100735.11;104055;1283;62293;-83
2023/04/18 11:40:58;;;;;;;;;;;;;;;20.42;41.54;100730.61;104053;1283;62074;-83
2023/04/18 11:43:24;;;;;;;;;;;;;;;20.43;41.72;100728.98;103923;1292;62174;-83
2023/04/18 11:45:53;;;;;;;;;;;;;;;20.43;41.80;100727.94;104166;1282;62193;-83
2023/04/18 11:48:18;;;;;;;;;;;;;;;20.42;41.72;100727.92;104348;1288;72654;-83
2023/04/18 11:50:44;;;;;;;;;;;;;;;20.42;41.68;100725.44;104133;1286;63390;-84
2023/04/18 11:53:09;;;;;;;;;;;;;;;20.42;41.86;100728.30;103999;1288;62196;-83
2023/04/18 11:55:36;;;;;;;;;;;;;;;20.42;41.86;100725.77;104019;1282;62172;-83
2023/04/18 11:58:02;;;;;;;;;;;;;;;20.43;41.81;100727.38;104084;1283;62187;-83
2023/04/18 12:00:37;;;;;;;;;;;;;;;20.43;41.79;100723.42;104056;1282;62260;-83
2023/04/18 12:03:04;;;;;;;;;;;;;;;20.43;41.86;100721.09;104071;1288;62198;-83
2023/04/18 12:05:30;;;;;;;;;;;;;;;20.43;41.89;100723.27;104033;1286;62182;-83
2023/04/18 12:07:55;;;;;;;;;;;;;;;20.43;41.84;100720.73;104060;1287;62245;-83
2023/04/18 12:10:21;;;;;;;;;;;;;;;20.43;42.00;100726.30;103959;1288;62895;-83
2023/04/18 12:12:50;;;;;;;;;;;;;;;20.43;41.95;100726.84;104026;1288;62135;-83
2023/04/18 12:15:16;;;;;;;;;;;;;;;20.43;41.84;100728.81;103922;1286;62113;-83
2023/04/18 12:17:42;;;;;;;;;;;;;;;20.42;41.93;100735.10;104010;1288;62189;-83
2023/04/18 12:20:08;;;;;;;;;;;;;;;20.42;41.91;100730.80;104079;1288;62123;-83